Time;durP1;ratioP1;P1;durP2;ratioP2;P2;SDS_P1;SDS_P2;PMS_P1;PMS_P2;Temp;Humidity;BMP_temperature;BMP_pressure;BME280_temperature;BME280_humidity;BME280_pressure;Samples;Min_cycle;Max_cycle;Signal;HPM_P1;HPM_P2
2022/01/22 00:00:17;;;;;;;7.47;5.40;;;;;;;-0.52;81.65;98535.80;1728853;82;21664;-74
2022/01/22 00:02:45;;;;;;;8.80;5.60;;;;;;;-0.54;82.10;98543.13;1705141;83;21005;-77
2022/01/22 00:05:11;;;;;;;6.50;5.20;;;;;;;-0.59;82.80;98550.36;1725383;82;21498;-79
2022/01/22 00:07:39;;;;;;;6.57;5.97;;;;;;;-0.66;83.24;98535.53;1724977;83;21506;-74
2022/01/22 00:10:14;;;;;;;10.10;5.93;;;;;;;-0.69;83.52;98543.36;1735357;82;21037;-76
2022/01/22 00:12:56;;;;;;;5.10;4.60;;;;;;;-0.72;84.29;98542.97;1736460;81;21061;-70
2022/01/22 00:15:13;;;;;;;8.87;6.17;;;;;;;-0.75;84.47;98538.08;1727189;81;21078;-82
2022/01/22 00:17:41;;;;;;;9.53;5.40;;;;;;;-0.75;84.79;98543.36;1724158;81;20978;-77
2022/01/22 00:20:09;;;;;;;7.73;5.33;;;;;;;-0.74;85.07;98542.35;1729341;81;21030;-76
2022/01/22 00:22:37;;;;;;;7.20;5.03;;;;;;;-0.72;85.29;98552.20;1727812;81;21012;-76
2022/01/22 00:25:08;;;;;;;5.17;4.67;;;;;;;-0.70;85.49;98546.20;1703953;82;21588;-75
2022/01/22 00:27:36;;;;;;;6.20;5.00;;;;;;;-0.67;85.69;98555.83;1695752;84;21564;-76
2022/01/22 00:30:05;;;;;;;7.30;5.43;;;;;;;-0.70;85.74;98544.87;1710656;83;21123;-74
2022/01/22 00:32:33;;;;;;;14.00;5.97;;;;;;;-0.70;85.87;98554.94;1668540;84;21083;-74
2022/01/22 00:35:01;;;;;;;6.23;5.17;;;;;;;-0.71;85.98;98550.66;1652855;85;21084;-78
2022/01/22 00:37:27;;;;;;;8.23;5.23;;;;;;;-0.71;86.08;98557.27;1688776;84;21075;-75
2022/01/22 00:39:53;;;;;;;5.53;4.97;;;;;;;-0.75;86.25;98544.17;1682292;85;21023;-73
2022/01/22 00:42:21;;;;;;;6.90;5.00;;;;;;;-0.71;86.30;98544.06;1682182;85;21965;-75
2022/01/22 00:44:51;;;;;;;7.07;5.03;;;;;;;-0.66;86.29;98547.41;1682207;85;21034;-76
2022/01/22 00:47:18;;;;;;;4.40;3.67;;;;;;;-0.66;86.22;98541.62;1705127;82;21523;-77
2022/01/22 00:49:46;;;;;;;8.40;5.93;;;;;;;-0.66;86.27;98550.05;1715679;83;21064;-77
2022/01/22 00:52:12;;;;;;;4.60;3.80;;;;;;;-0.65;86.16;98541.93;1721059;81;21515;-76
2022/01/22 00:54:39;;;;;;;5.40;4.40;;;;;;;-0.63;86.13;98551.79;1696381;83;22021;-77
2022/01/22 00:57:06;;;;;;;5.77;3.87;;;;;;;-0.64;85.86;98552.80;1703084;83;21669;-75
2022/01/22 00:59:32;;;;;;;6.60;5.63;;;;;;;-0.62;85.72;98535.41;1700078;84;21386;-77
2022/01/22 01:01:59;;;;;;;5.67;4.03;;;;;;;-0.62;85.63;98540.19;1666861;86;22025;-77
2022/01/22 01:04:27;;;;;;;10.17;6.70;;;;;;;-0.61;85.52;98546.28;1684069;83;21678;-74
2022/01/22 01:06:54;;;;;;;5.70;3.80;;;;;;;-0.62;85.49;98557.34;1727363;82;21255;-76
2022/01/22 01:09:20;;;;;;;4.30;3.90;;;;;;;-0.62;85.43;98544.65;1726953;81;21072;-78
2022/01/22 01:11:52;;;;;;;4.77;3.50;;;;;;;-0.60;85.41;98539.98;1711232;82;21097;-77
2022/01/22 01:14:23;;;;;;;5.63;3.13;;;;;;;-0.58;85.39;98541.93;1691546;83;21076;-77
2022/01/22 01:17:07;;;;;;;5.97;3.70;;;;;;;-0.57;85.32;98532.45;1718121;83;21028;-79
2022/01/22 01:33:23;;;;;;;6.27;4.20;;;;;;;-0.72;86.11;98549.03;1725773;82;21155;-76
2022/01/22 01:35:31;;;;;;;9.03;3.83;;;;;;;-0.74;86.25;98560.33;1700537;84;21047;-73
2022/01/22 01:38:00;;;;;;;5.27;3.50;;;;;;;-0.74;86.29;98550.27;1705843;83;21586;-72
2022/01/22 01:40:28;;;;;;;5.87;3.60;;;;;;;-0.71;86.38;98544.57;1688570;82;21046;-73
2022/01/22 01:43:07;;;;;;;7.17;4.43;;;;;;;-0.67;86.40;98559.00;1742802;80;21004;-74
2022/01/22 01:45:27;;;;;;;5.60;4.03;;;;;;;-0.67;86.36;98551.88;1737412;81;21707;-75
2022/01/22 01:47:59;;;;;;;3.73;3.43;;;;;;;-0.67;86.36;98557.69;1757897;81;20889;-74
2022/01/22 01:50:30;;;;;;;4.00;3.37;;;;;;;-0.69;86.49;98555.75;1742800;81;21585;-82
2022/01/22 01:53:26;;;;;;;;;;;;;;;-0.70;86.58;98555.44;1736373;82;21049;-77
2022/01/22 01:56:05;;;;;;;7.03;4.33;;;;;;;-0.69;86.72;98561.84;1736700;81;20219;-76
2022/01/22 01:58:21;;;;;;;4.67;4.00;;;;;;;-0.71;86.86;98553.30;1734194;82;21387;-77
2022/01/22 02:00:48;;;;;;;5.20;3.80;;;;;;;-0.72;87.06;98562.77;1724790;83;21009;-76
2022/01/22 02:03:15;;;;;;;5.57;4.83;;;;;;;-0.70;87.27;98564.17;1757787;81;21028;-75
2022/01/22 02:05:44;;;;;;;8.73;4.10;;;;;;;-0.70;87.37;98566.00;1745706;81;21073;-75
2022/01/22 02:08:12;;;;;;;5.27;3.80;;;;;;;-0.70;87.44;98566.00;1694699;83;21056;-74
2022/01/22 02:10:53;;;;;;;6.03;3.37;;;;;;;-0.68;87.57;98568.75;1692341;82;21064;-76
2022/01/22 02:24:07;;;;;;;4.77;3.20;;;;;;;-0.76;88.08;98561.02;1722878;83;20967;-75
2022/01/22 02:26:34;;;;;;;5.87;2.87;;;;;;;-0.76;88.23;98565.48;1696835;84;21010;-74
2022/01/22 02:29:00;;;;;;;3.73;3.20;;;;;;;-0.76;88.31;98573.41;1694395;84;21106;-74
2022/01/22 02:31:38;;;;;;;4.90;3.57;;;;;;;-0.75;88.33;98565.30;1699018;81;21117;-74
2022/01/22 02:34:17;;;;;;;7.70;4.47;;;;;;;-0.76;88.30;98574.22;1702929;83;21019;-73
2022/01/22 02:36:55;;;;;;;4.67;3.37;;;;;;;-0.76;88.31;98566.80;1706087;83;21057;-74
2022/01/22 02:39:19;;;;;;;3.90;3.60;;;;;;;-0.75;88.36;98565.30;1721342;83;21033;-74
2022/01/22 02:41:47;;;;;;;4.87;3.27;;;;;;;-0.75;88.24;98575.03;1729749;81;21075;-75
2022/01/22 02:45:01;;;;;;;5.67;4.20;;;;;;;-0.75;88.31;98589.05;1723486;82;20986;-76
2022/01/22 02:46:45;;;;;;;3.50;3.17;;;;;;;-0.76;88.23;98583.97;1671154;83;21112;-77
2022/01/22 02:49:11;;;;;;;5.37;3.27;;;;;;;-0.77;88.14;98584.50;1704669;83;21284;-74
2022/01/22 02:51:38;;;;;;;9.57;3.20;;;;;;;-0.82;88.20;98601.95;1699965;81;21538;-76
2022/01/22 02:54:05;;;;;;;8.93;4.37;;;;;;;-0.83;88.25;98597.19;1732542;81;21446;-76
2022/01/22 02:56:31;;;;;;;6.83;3.27;;;;;;;-0.84;88.27;98586.83;1755017;81;20965;-74
2022/01/22 02:58:59;;;;;;;5.27;3.00;;;;;;;-0.83;88.21;98594.55;1689493;84;21398;-76
2022/01/22 03:01:26;;;;;;;3.60;2.83;;;;;;;-0.81;88.17;98591.68;1655657;85;21122;-75
2022/01/22 03:03:53;;;;;;;6.33;3.70;;;;;;;-0.75;88.29;98586.91;1670227;85;20956;-78
2022/01/22 03:06:20;;;;;;;6.73;3.33;;;;;;;-0.74;87.91;98581.44;1687252;84;21590;-76
2022/01/22 03:08:47;;;;;;;3.57;3.07;;;;;;;-0.74;87.80;98585.91;1696294;83;22282;-76
2022/01/22 03:11:20;;;;;;;5.10;3.80;;;;;;;-0.74;87.71;98582.76;1692900;83;21533;-77
2022/01/22 03:16:50;;;;;;;4.17;3.40;;;;;;;-0.72;87.37;98583.89;1743318;80;21071;-77
2022/01/22 03:19:12;;;;;;;4.50;2.90;;;;;;;-0.71;87.25;98584.98;1699372;83;21035;-76
2022/01/22 03:21:41;;;;;;;6.00;3.57;;;;;;;-0.73;87.06;98591.50;1747098;80;20997;-76
2022/01/22 03:29:40;;;;;;;5.60;2.83;;;;;;;-0.66;86.71;98587.82;1715039;82;21072;-75
2022/01/22 03:32:09;;;;;;;5.67;3.30;;;;;;;-0.61;86.61;98588.52;1743429;82;21478;-75
2022/01/22 03:34:42;;;;;;;5.53;3.57;;;;;;;-0.58;86.41;98592.09;1677171;83;21553;-76
2022/01/22 03:37:04;;;;;;;6.43;2.83;;;;;;;-0.55;86.30;98595.63;1709237;83;21663;-75
2022/01/22 03:39:31;;;;;;;3.73;3.33;;;;;;;-0.54;85.83;98592.80;1714824;80;21138;-74
2022/01/22 03:41:58;;;;;;;4.97;2.90;;;;;;;-0.55;85.56;98599.59;1743185;82;20973;-75
2022/01/22 03:44:25;;;;;;;2.20;2.00;;;;;;;-0.55;85.41;98599.09;1746251;80;20962;-75
2022/01/22 03:46:54;;;;;;;5.10;3.43;;;;;;;-0.53;85.29;98602.85;1706585;83;21116;-74
2022/01/22 03:49:20;;;;;;;4.40;2.63;;;;;;;-0.54;84.88;98603.36;1706499;83;21060;-76
2022/01/22 03:51:46;;;;;;;2.80;2.50;;;;;;;-0.60;84.57;98613.41;1740987;82;21203;-76
2022/01/22 03:54:13;;;;;;;3.93;2.73;;;;;;;-0.65;84.36;98612.39;1738550;80;20954;-77
2022/01/22 03:56:43;;;;;;;5.80;4.30;;;;;;;-0.68;84.35;98626.02;1742334;80;21020;-76
2022/01/22 03:59:15;;;;;;;4.97;3.07;;;;;;;-0.70;84.22;98616.16;1696047;84;21573;-71
2022/01/22 04:04:46;;;;;;;5.00;2.40;;;;;;;-0.71;84.12;98616.66;1742270;82;21952;-73
2022/01/22 04:09:47;;;;;;;4.63;2.40;;;;;;;-0.71;83.97;98629.04;1644345;86;20990;-72
2022/01/22 04:12:18;;;;;;;2.97;2.60;;;;;;;-0.70;83.74;98626.71;1653139;86;21052;-71
2022/01/22 04:14:56;;;;;;;4.97;3.63;;;;;;;-0.71;83.61;98623.76;1622506;87;21050;-72
2022/01/22 04:17:25;;;;;;;4.10;2.97;;;;;;;-0.74;83.40;98626.31;1670615;85;21122;-73
2022/01/22 04:25:19;;;;;;;3.43;3.07;;;;;;;-0.67;83.17;98635.56;1652994;86;21532;-73
2022/01/22 04:27:42;;;;;;;4.53;4.07;;;;;;;-0.66;83.03;98645.08;1683285;83;21061;-73
2022/01/22 04:30:10;;;;;;;3.43;2.47;;;;;;;-0.68;83.09;98640.53;1703001;83;21516;-74
2022/01/22 04:32:37;;;;;;;3.63;2.20;;;;;;;-0.69;83.12;98638.91;1709817;83;21020;-73
2022/01/22 04:35:05;;;;;;;2.87;2.40;;;;;;;-0.72;83.22;98638.78;1710412;83;21020;-77
2022/01/22 04:37:31;;;;;;;3.50;2.33;;;;;;;-0.74;83.35;98653.22;1649577;85;21055;-77
2022/01/22 04:39:58;;;;;;;9.47;4.50;;;;;;;-0.76;83.48;98638.08;1676316;85;21039;-77
2022/01/22 04:42:25;;;;;;;4.93;1.97;;;;;;;-0.78;83.59;98634.84;1672162;84;21049;-75
2022/01/22 04:45:00;;;;;;;3.83;2.73;;;;;;;-0.79;83.71;98635.85;1680158;85;20993;-75
2022/01/22 04:55:40;;;;;;;7.43;2.30;;;;;;;-0.78;83.90;98643.58;1716340;82;21075;-75
2022/01/22 04:58:09;;;;;;;2.53;1.97;;;;;;;-0.79;83.74;98643.27;1747832;82;20971;-73
2022/01/22 05:00:41;;;;;;;3.17;2.10;;;;;;;-0.80;83.60;98633.72;1715315;82;20970;-73
2022/01/22 05:03:08;;;;;;;6.93;2.50;;;;;;;-0.82;83.32;98656.06;1670550;85;21604;-71
2022/01/22 05:05:53;;;;;;;4.53;2.53;;;;;;;-0.86;83.03;98645.08;1673036;85;21025;-74
2022/01/22 05:08:34;;;;;;;2.50;2.27;;;;;;;-0.87;83.00;98653.22;1673856;84;21334;-72
2022/01/22 05:11:18;;;;;;;4.50;4.13;;;;;;;-0.88;82.77;98656.36;1624206;88;21069;-73
2022/01/22 05:13:46;;;;;;;3.07;2.17;;;;;;;-0.91;82.48;98651.47;1623720;88;21034;-76
2022/01/22 05:16:12;;;;;;;4.60;3.20;;;;;;;-0.91;82.46;98660.20;1624489;88;21508;-74
2022/01/22 05:18:50;;;;;;;4.40;2.37;;;;;;;-0.88;82.46;98653.72;1628959;87;22289;-73
2022/01/22 05:21:13;;;;;;;4.10;2.50;;;;;;;-0.84;82.31;98662.04;1601697;88;21084;-74
2022/01/22 05:23:38;;;;;;;2.57;2.20;;;;;;;-0.85;82.07;98669.14;1582183;88;21028;-73
2022/01/22 05:26:11;;;;;;;4.80;2.67;;;;;;;-0.84;81.72;98662.04;1636428;87;21031;-73
2022/01/22 05:32:04;;;;;;;4.97;2.37;;;;;;;-0.84;81.44;98680.52;1622641;88;21054;-74
2022/01/22 05:37:06;;;;;;;5.03;2.70;;;;;;;-0.84;81.08;98682.65;1650909;85;22247;-74
2022/01/22 05:39:29;;;;;;;4.83;3.33;;;;;;;-0.81;80.93;98681.42;1614142;86;21101;-75
2022/01/22 05:41:56;;;;;;;5.07;2.80;;;;;;;-0.80;80.65;98680.41;1646339;87;21913;-74
2022/01/22 05:44:23;;;;;;;6.73;2.57;;;;;;;-0.78;80.44;98688.45;1605912;88;21014;-74
2022/01/22 05:46:51;;;;;;;3.37;2.93;;;;;;;-0.76;80.33;98680.30;1630443;86;21160;-73
2022/01/22 05:49:20;;;;;;;5.47;2.93;;;;;;;-0.76;80.14;98680.30;1716594;83;21535;-73
2022/01/22 05:51:47;;;;;;;6.20;3.03;;;;;;;-0.76;79.91;98712.80;1682306;83;21041;-74
2022/01/22 05:54:34;;;;;;;5.40;3.23;;;;;;;-0.76;79.87;98702.24;1709829;81;21061;-72
2022/01/22 05:59:38;;;;;;;5.10;3.60;;;;;;;-0.79;79.80;98702.66;1701521;82;21211;-72
2022/01/22 06:02:18;;;;;;;6.47;2.80;;;;;;;-0.78;79.77;98702.15;1747059;81;20976;-73
2022/01/22 06:04:46;;;;;;;4.43;2.60;;;;;;;-0.78;79.73;98707.43;1687159;83;21071;-74
2022/01/22 06:07:14;;;;;;;4.53;2.97;;;;;;;-0.80;79.78;98706.30;1709526;81;21525;-74
2022/01/22 06:09:54;;;;;;;7.67;2.53;;;;;;;-0.76;79.81;98710.66;1692810;84;21574;-74
2022/01/22 06:14:39;;;;;;;5.03;3.10;;;;;;;-0.74;79.59;98718.70;1657793;83;21091;-75
2022/01/22 06:17:05;;;;;;;4.37;3.50;;;;;;;-0.74;79.48;98712.10;1651777;86;21054;-77
2022/01/22 06:19:39;;;;;;;8.53;2.93;;;;;;;-0.74;79.39;98730.58;1640929;85;21476;-74
2022/01/22 06:22:06;;;;;;;5.83;2.80;;;;;;;-0.75;79.14;98721.53;1692109;84;21099;-73
2022/01/22 06:24:32;;;;;;;4.33;3.37;;;;;;;-0.74;79.17;98733.72;1661649;85;21563;-75
2022/01/22 06:27:00;;;;;;;7.17;2.90;;;;;;;-0.73;79.09;98723.48;1709004;83;20984;-74
2022/01/22 06:29:26;;;;;;;5.03;2.40;;;;;;;-0.74;78.91;98720.02;1692907;84;21619;-75
2022/01/22 06:31:53;;;;;;;4.90;2.63;;;;;;;-0.72;78.96;98721.16;1680965;85;21527;-77
2022/01/22 06:34:20;;;;;;;6.27;4.33;;;;;;;-0.76;78.61;98718.58;1680399;84;21113;-75
2022/01/22 06:36:47;;;;;;;5.23;2.57;;;;;;;-0.77;78.64;98725.72;1680901;85;21129;-75
2022/01/22 06:39:17;;;;;;;6.30;2.70;;;;;;;-0.77;78.57;98728.35;1680033;85;21064;-74
2022/01/22 06:41:54;;;;;;;6.00;3.27;;;;;;;-0.75;78.60;98731.59;1651519;84;21034;-74
2022/01/22 06:44:41;;;;;;;8.90;3.30;;;;;;;-0.74;78.53;98735.86;1709046;83;21534;-76
2022/01/22 06:47:09;;;;;;;3.67;2.93;;;;;;;-0.72;78.51;98730.39;1672718;84;21519;-73
2022/01/22 06:49:50;;;;;;;5.30;2.60;;;;;;;-0.67;78.42;98741.95;1688342;82;21097;-74
2022/01/22 06:52:29;;;;;;;3.70;2.70;;;;;;;-0.67;78.12;98745.13;1669253;83;20971;-74
2022/01/22 06:54:57;;;;;;;5.87;2.33;;;;;;;-0.67;78.14;98741.95;1704961;83;21050;-74
2022/01/22 06:57:24;;;;;;;5.63;2.87;;;;;;;-0.63;78.07;98753.76;1673105;85;21018;-74
2022/01/22 06:59:51;;;;;;;7.23;2.53;;;;;;;-0.63;77.75;98748.48;1651969;86;21031;-73
2022/01/22 07:02:18;;;;;;;3.90;2.73;;;;;;;-0.60;77.62;98739.33;1671803;85;21117;-75
2022/01/22 07:04:45;;;;;;;5.33;3.23;;;;;;;-0.56;77.59;98753.75;1680789;85;20999;-73
2022/01/22 07:07:13;;;;;;;5.60;2.93;;;;;;;-0.55;77.17;98752.73;1685628;83;21072;-73
2022/01/22 07:09:41;;;;;;;5.27;2.70;;;;;;;-0.55;77.11;98750.91;1743248;82;21931;-71
2022/01/22 07:12:12;;;;;;;5.70;3.00;;;;;;;-0.49;77.05;98752.75;1743162;82;21553;-71
2022/01/22 07:14:39;;;;;;;4.27;2.97;;;;;;;-0.48;76.68;98764.14;1713691;83;21144;-77
2022/01/22 07:17:07;;;;;;;4.23;3.07;;;;;;;-0.48;76.60;98762.81;1713595;83;21829;-75
2022/01/22 07:19:40;;;;;;;6.80;2.97;;;;;;;-0.47;76.54;98759.14;1731024;82;21039;-75
2022/01/22 07:22:29;;;;;;;6.83;3.30;;;;;;;-0.45;76.41;98765.05;1752495;80;21053;-75
2022/01/22 07:24:41;;;;;;;3.03;2.40;;;;;;;-0.44;76.26;98761.39;1759012;81;21096;-75
2022/01/22 07:27:07;;;;;;;7.27;3.33;;;;;;;-0.43;76.26;98759.03;1743229;82;21244;-73
2022/01/22 07:29:35;;;;;;;4.47;2.80;;;;;;;-0.39;76.25;98763.42;1743477;82;20981;-77
2022/01/22 07:32:05;;;;;;;5.50;2.80;;;;;;;-0.37;76.10;98767.47;1762230;80;21068;-72
2022/01/22 07:34:31;;;;;;;3.73;2.97;;;;;;;-0.36;75.91;98771.75;1717157;80;20945;-75
2022/01/22 07:37:02;;;;;;;4.37;2.70;;;;;;;-0.40;75.59;98778.96;1713202;82;21068;-73
2022/01/22 07:39:32;;;;;;;5.20;2.93;;;;;;;-0.40;75.62;98782.42;1697736;84;21646;-74
2022/01/22 07:42:04;;;;;;;5.87;2.63;;;;;;;-0.41;75.70;98778.65;1720131;80;21530;-73
2022/01/22 07:44:39;;;;;;;7.30;4.00;;;;;;;-0.39;75.69;98780.09;1735221;82;20949;-73
2022/01/22 07:47:07;;;;;;;9.80;4.00;;;;;;;-0.39;75.81;98767.39;1746932;80;21069;-73
2022/01/22 07:49:33;;;;;;;4.20;2.53;;;;;;;-0.37;75.83;98785.97;1727288;83;21567;-73
2022/01/22 07:52:02;;;;;;;5.97;3.93;;;;;;;-0.35;75.73;98797.66;1757300;80;21164;-72
2022/01/22 07:54:28;;;;;;;4.43;3.73;;;;;;;-0.35;75.76;98784.45;1721417;80;20959;-71
2022/01/22 07:56:56;;;;;;;6.73;3.53;;;;;;;-0.35;75.71;98788.41;1706309;83;21096;-73
2022/01/22 07:59:23;;;;;;;4.67;2.53;;;;;;;-0.35;75.57;98789.23;1712038;83;21576;-73
2022/01/22 08:01:51;;;;;;;6.47;3.07;;;;;;;-0.37;75.56;98795.21;1721963;82;21030;-78
2022/01/22 08:04:24;;;;;;;4.10;2.57;;;;;;;-0.36;75.53;98807.41;1766783;80;21608;-74
2022/01/22 08:07:09;;;;;;;4.23;3.00;;;;;;;-0.35;75.38;98813.01;1760537;80;21046;-76
2022/01/22 08:09:54;;;;;;;6.53;2.73;;;;;;;-0.32;75.38;98803.85;1653233;85;21572;-74
2022/01/22 08:12:23;;;;;;;4.77;2.70;;;;;;;-0.31;75.16;98804.98;1671678;84;21044;-77
2022/01/22 08:14:51;;;;;;;6.50;3.20;;;;;;;-0.26;75.17;98807.83;1688654;84;21184;-76
2022/01/22 08:17:17;;;;;;;5.10;3.40;;;;;;;-0.25;74.80;98804.69;1647932;87;21750;-77
2022/01/22 08:19:43;;;;;;;5.60;2.90;;;;;;;-0.24;74.64;98811.59;1679350;84;21046;-77
2022/01/22 08:22:21;;;;;;;8.93;4.97;;;;;;;-0.23;74.63;98813.20;1668063;85;21076;-77
2022/01/22 08:24:52;;;;;;;6.40;3.57;;;;;;;-0.21;74.70;98816.47;1642691;85;21497;-75
2022/01/22 08:27:32;;;;;;;3.80;2.70;;;;;;;-0.18;74.52;98820.83;1680463;84;21062;-76
2022/01/22 08:29:46;;;;;;;5.30;2.80;;;;;;;-0.14;74.51;98823.88;1668739;85;21044;-79
2022/01/22 08:32:35;;;;;;;3.23;2.57;;;;;;;-0.11;74.19;98815.06;1677727;85;21025;-75
2022/01/22 08:37:38;;;;;;;5.47;4.00;;;;;;;-0.16;73.75;98825.92;1666078;84;21036;-80
2022/01/22 08:40:07;;;;;;;4.70;3.23;;;;;;;-0.17;74.01;98835.68;1686889;84;21304;-76
2022/01/22 08:42:36;;;;;;;5.87;3.50;;;;;;;-0.16;73.86;98834.67;1659631;85;21061;-75
2022/01/22 08:45:03;;;;;;;3.83;3.30;;;;;;;-0.13;73.93;98842.69;1682175;84;21033;-77
2022/01/22 08:47:30;;;;;;;5.57;4.07;;;;;;;-0.12;73.79;98840.36;1648248;87;21517;-75
2022/01/22 08:49:59;;;;;;;8.00;3.30;;;;;;;-0.08;73.83;98844.22;1621856;87;20995;-78
2022/01/22 08:52:30;;;;;;;7.70;3.77;;;;;;;-0.05;73.90;98842.51;1622487;87;21117;-75
2022/01/22 08:54:54;;;;;;;8.07;4.13;;;;;;;-0.01;73.80;98842.41;1680046;84;21171;-76
2022/01/22 08:57:22;;;;;;;6.60;4.33;;;;;;;0.00;73.54;98847.47;1680315;84;20954;-76
2022/01/22 08:59:52;;;;;;;29.07;5.53;;;;;;;0.00;73.29;98838.22;1680499;84;21210;-79
2022/01/22 09:02:18;;;;;;;4.67;3.27;;;;;;;0.00;73.32;98840.08;1668368;83;21073;-79
2022/01/22 09:04:51;;;;;;;6.13;3.43;;;;;;;0.04;73.51;98836.52;1653997;85;21051;-73
2022/01/22 09:07:18;;;;;;;7.00;4.13;;;;;;;0.08;73.09;98841.69;1678021;85;21167;-77
2022/01/22 09:09:48;;;;;;;7.10;3.07;;;;;;;0.09;72.95;98849.93;1703012;82;21017;-73
2022/01/22 09:12:33;;;;;;;5.10;3.57;;;;;;;0.09;72.76;98853.90;1704533;82;21013;-73
2022/01/22 09:15:05;;;;;;;8.57;6.20;;;;;;;0.07;72.41;98847.48;1736717;81;20949;-72
2022/01/22 09:17:31;;;;;;;4.80;3.30;;;;;;;0.07;72.56;98853.27;1706685;82;21058;-73
2022/01/22 09:20:00;;;;;;;7.17;3.60;;;;;;;0.09;72.56;98849.42;1740779;81;21502;-75
2022/01/22 09:22:36;;;;;;;5.70;3.33;;;;;;;0.11;72.39;98850.02;1731733;80;21021;-82
2022/01/22 09:25:03;;;;;;;6.30;4.67;;;;;;;0.11;72.37;98844.73;1722153;81;21570;-76
2022/01/22 09:27:29;;;;;;;6.83;3.03;;;;;;;0.11;72.42;98848.70;1705888;81;21045;-76
2022/01/22 09:29:57;;;;;;;5.00;2.73;;;;;;;0.11;72.54;98847.88;1733503;82;21649;-76
2022/01/22 09:32:24;;;;;;;5.67;3.57;;;;;;;0.12;72.74;98868.84;1743113;81;21048;-79
2022/01/22 09:34:56;;;;;;;5.93;4.00;;;;;;;0.14;72.62;98856.74;1710617;81;20982;-75
2022/01/22 09:37:26;;;;;;;7.17;3.60;;;;;;;0.19;72.83;98858.27;1731127;81;21019;-77
2022/01/22 09:39:57;;;;;;;4.40;2.63;;;;;;;0.26;72.97;98864.36;1760714;80;21026;-76
2022/01/22 09:42:25;;;;;;;3.77;3.00;;;;;;;0.29;72.58;98863.94;1758246;81;20955;-78
2022/01/22 09:45:00;;;;;;;6.53;3.13;;;;;;;0.25;72.39;98865.37;1751211;81;21094;-79
2022/01/22 09:47:28;;;;;;;5.23;3.50;;;;;;;0.19;72.50;98858.27;1745563;81;20956;-74
2022/01/22 09:50:09;;;;;;;4.37;2.80;;;;;;;0.18;72.59;98857.96;1683238;81;21008;-80
2022/01/22 09:52:54;;;;;;;6.40;3.57;;;;;;;0.18;72.77;98856.14;1735722;81;21205;-78
2022/01/22 09:55:22;;;;;;;7.30;3.77;;;;;;;0.24;73.01;98865.87;1673192;83;21047;-74
2022/01/22 09:58:00;;;;;;;6.40;3.67;;;;;;;0.27;72.73;98878.70;1726447;81;21761;-76
2022/01/22 10:00:37;;;;;;;7.00;4.13;;;;;;;0.25;72.68;98866.19;1702750;83;21539;-76
2022/01/22 10:03:18;;;;;;;8.57;3.83;;;;;;;0.28;72.72;98875.55;1743847;81;21048;-78
2022/01/22 10:05:47;;;;;;;6.10;4.50;;;;;;;0.31;72.70;98876.45;1738539;81;21029;-78
2022/01/22 10:08:34;;;;;;;8.17;4.67;;;;;;;0.36;72.59;98867.41;1729563;81;21753;-78
2022/01/22 10:11:25;;;;;;;6.93;3.97;;;;;;;0.39;72.53;98865.16;1727424;81;22104;-75
2022/01/22 10:14:10;;;;;;;7.97;4.07;;;;;;;0.44;72.49;98867.19;1661189;84;22291;-77
2022/01/22 10:16:38;;;;;;;7.40;4.20;;;;;;;0.45;71.78;98864.86;1651887;85;21106;-77
2022/01/22 10:19:21;;;;;;;7.20;4.27;;;;;;;0.46;71.76;98877.06;1677639;82;24241;-78
2022/01/22 10:21:59;;;;;;;6.40;4.17;;;;;;;0.46;71.34;98877.06;1602864;89;21139;-78
2022/01/22 10:24:45;;;;;;;8.63;5.03;;;;;;;0.40;71.42;98877.88;1592910;88;22076;-76
2022/01/22 10:30:15;;;;;;;10.37;5.53;;;;;;;0.46;71.09;98868.31;1651770;85;21056;-77
2022/01/22 10:32:57;;;;;;;5.73;3.13;;;;;;;0.49;70.44;98877.97;1650849;85;21116;-77
2022/01/22 10:35:36;;;;;;;5.87;4.50;;;;;;;0.46;69.61;98873.10;1658541;86;21047;-77
2022/01/22 10:38:21;;;;;;;7.43;4.67;;;;;;;0.40;69.53;98871.27;1625082;87;21585;-79
2022/01/22 10:40:49;;;;;;;12.93;5.43;;;;;;;0.43;69.56;98872.20;1627977;86;21028;-78
2022/01/22 10:43:30;;;;;;;5.47;4.20;;;;;;;0.47;69.46;98873.41;1686344;84;21582;-77
2022/01/22 10:46:08;;;;;;;5.03;3.40;;;;;;;0.54;69.24;98866.27;1671092;85;21008;-77
2022/01/22 10:48:30;;;;;;;4.73;3.17;;;;;;;0.55;68.50;98862.61;1679279;84;21029;-77
2022/01/22 10:51:09;;;;;;;7.60;4.13;;;;;;;0.58;68.36;98862.19;1664745;84;21734;-84
2022/01/22 10:54:01;;;;;;;3.67;2.67;;;;;;;0.64;67.87;98872.45;1631919;87;20928;-77
2022/01/22 10:56:31;;;;;;;3.40;2.73;;;;;;;0.63;66.82;98871.64;1634290;86;21580;-78
2022/01/22 10:59:08;;;;;;;4.40;3.57;;;;;;;0.68;66.31;98873.16;1647261;85;21626;-78
2022/01/22 11:01:51;;;;;;;6.77;3.43;;;;;;;0.70;66.29;98871.13;1682994;84;21605;-79
2022/01/22 11:04:36;;;;;;;7.33;3.40;;;;;;;0.75;66.31;98868.69;1651767;86;21992;-85
2022/01/22 11:07:06;;;;;;;4.67;3.10;;;;;;;0.80;66.29;98876.81;1676793;84;21075;-80
2022/01/22 11:09:34;;;;;;;5.13;3.20;;;;;;;0.83;65.61;98872.42;1688955;84;21047;-85
2022/01/22 11:12:05;;;;;;;4.57;3.40;;;;;;;0.81;65.33;98881.09;1656964;85;21597;-82
2022/01/22 11:14:36;;;;;;;5.90;3.50;;;;;;;0.76;65.32;98865.02;1648383;86;21017;-83
2022/01/22 11:17:03;;;;;;;6.03;3.60;;;;;;;0.73;65.67;98881.80;1649099;84;21836;-86
2022/01/22 11:19:32;;;;;;;7.20;5.07;;;;;;;0.70;65.81;98874.28;1683768;84;21031;-84
2022/01/22 11:22:11;;;;;;;3.93;3.33;;;;;;;0.68;66.70;98897.48;1669472;84;21582;-85
2022/01/22 11:24:43;;;;;;;4.37;3.67;;;;;;;0.60;67.75;98886.61;1681573;84;21010;-81
2022/01/22 11:27:12;;;;;;;5.60;2.83;;;;;;;0.55;69.91;98902.80;1648082;84;21067;-80
2022/01/22 11:29:57;;;;;;;4.10;3.27;;;;;;;0.43;71.08;98902.61;1668347;84;21849;-76
2022/01/22 11:32:34;;;;;;;4.13;3.30;;;;;;;0.35;72.20;98898.83;1677815;84;21384;-77
2022/01/22 11:35:04;;;;;;;8.27;3.40;;;;;;;0.25;73.09;98907.67;1671870;84;21032;-76
2022/01/22 11:37:51;;;;;;;7.30;2.87;;;;;;;0.18;73.45;98898.94;1682197;84;20939;-76
2022/01/22 11:40:23;;;;;;;1.77;1.60;;;;;;;0.10;74.94;98917.12;1644720;84;21084;-81
2022/01/22 11:43:08;;;;;;;;;;;;;;;-0.05;76.03;98929.19;1675085;84;21372;-79
2022/01/22 11:45:51;;;;;;;1.40;1.30;;;;;;;-0.25;77.12;98929.67;1674876;84;20222;-81
2022/01/22 11:48:24;;;;;;;1.07;0.80;;;;;;;-0.43;78.90;98918.03;1667640;84;21061;-82
2022/01/22 11:51:13;;;;;;;1.80;1.60;;;;;;;-0.63;80.49;98931.16;1639812;86;21574;-78
2022/01/22 11:53:42;;;;;;;2.13;1.43;;;;;;;-0.77;81.46;98922.87;1695353;83;21505;-82
2022/01/22 11:56:25;;;;;;;1.57;1.47;;;;;;;-0.82;82.31;98928.73;1651516;85;21149;-82
2022/01/22 11:59:14;;;;;;;1.47;1.37;;;;;;;-0.79;82.94;98937.58;1634562;85;21105;-88
2022/01/22 12:01:52;;;;;;;1.70;1.40;;;;;;;-0.74;83.17;98941.77;1642591;86;33361;-83
2022/01/22 12:04:21;;;;;;;1.40;1.30;;;;;;;-0.75;83.28;98945.91;1661166;85;21090;-79
2022/01/22 12:07:09;;;;;;;2.30;1.43;;;;;;;-0.76;83.29;98947.73;1662986;85;21046;-80
2022/01/22 12:09:54;;;;;;;5.10;1.80;;;;;;;-0.79;83.19;98951.27;1638249;87;21200;-83
2022/01/22 12:15:36;;;;;;;1.63;1.30;;;;;;;-0.69;83.28;98962.30;1658524;86;21544;-78
2022/01/22 12:18:10;;;;;;;1.20;1.10;;;;;;;-0.72;82.79;98958.73;1661712;86;21033;-79
2022/01/22 12:23:18;;;;;;;1.20;1.10;;;;;;;-0.74;82.59;98970.80;1661372;86;21187;-77
2022/01/22 12:25:49;;;;;;;1.33;1.10;;;;;;;-0.75;82.26;98972.31;1644123;86;20969;-79
2022/01/22 12:28:44;;;;;;;2.07;1.87;;;;;;;-0.79;82.21;98975.03;1661732;85;21422;-83
2022/01/22 12:31:19;;;;;;;2.67;1.70;;;;;;;-0.83;82.36;98976.44;1661494;86;21553;-79
2022/01/22 12:33:45;;;;;;;2.80;2.20;;;;;;;-0.83;82.74;98979.07;1661955;84;20960;-78
2022/01/22 12:36:22;;;;;;;3.93;3.03;;;;;;;-0.83;82.74;98979.07;1690383;84;21507;-78
2022/01/22 12:38:59;;;;;;;2.00;1.70;;;;;;;-0.83;82.72;98983.84;1644239;85;21039;-79
2022/01/22 12:41:31;;;;;;;5.00;3.03;;;;;;;-0.79;82.67;98985.59;1638534;87;21047;-75
2022/01/22 12:47:11;;;;;;;3.53;2.57;;;;;;;-0.77;82.54;98987.55;1634681;86;20940;-77
2022/01/22 12:49:39;;;;;;;4.50;2.73;;;;;;;-0.78;82.41;98996.47;1665295;84;21816;-79
2022/01/22 12:52:12;;;;;;;6.87;2.93;;;;;;;-0.76;82.51;99002.34;1690650;84;21048;-79
2022/01/22 12:54:45;;;;;;;4.63;2.87;;;;;;;-0.73;82.58;99008.58;1678713;84;21082;-79
2022/01/22 12:57:14;;;;;;;3.47;2.80;;;;;;;-0.66;82.60;99010.73;1660085;84;21116;-76
2022/01/22 13:00:14;;;;;;;2.93;2.67;;;;;;;-0.61;82.49;99014.94;1654293;85;21039;-80
2022/01/22 13:02:56;;;;;;;3.90;2.57;;;;;;;-0.56;82.46;99012.02;1672837;85;21174;-79
2022/01/22 13:05:24;;;;;;;3.20;2.60;;;;;;;-0.51;82.21;99008.30;1672045;85;21003;-84
2022/01/22 13:07:57;;;;;;;2.27;2.07;;;;;;;-0.51;82.05;99013.58;1664067;85;21556;-77
2022/01/22 13:10:32;;;;;;;2.67;1.90;;;;;;;-0.45;81.96;99017.27;1618016;85;21016;-81
2022/01/22 13:12:57;;;;;;;2.60;2.40;;;;;;;-0.48;81.87;99007.89;1669192;84;21080;-76